Woodlake, California
Current Conditions -  °F | °C
As of 4:15 PM on Wednesday 26 Nov 2014 (Local Time) from KVIS Reporting Station
Clear Clear  
Wind Chill: 64°   Ceiling: Unl
Heat Index: 64°   Visibility: 4mi
Dew Point: 46°   Wind: 3mph
Humidity: 52%   Direction: 290°WNW
Pressure: 30.24"   Gusts: NA
Location:  36.42°N, 119.09°W
Report Text: KVIS 270015Z 29003KT 4SM CLR 18/08 A3024 RMK AO1
Loading
Personal Weather Stations






























Interactive Weather Map New forecast layout! Learn more

10-Day Weather Forecast

Advertisements
Track Severe Weather on mobile